Time;durP1;ratioP1;P1;durP2;ratioP2;P2;SDS_P1;SDS_P2;PMS_P1;PMS_P2;Temp;Humidity;BMP_temperature;BMP_pressure;BME280_temperature;BME280_humidity;BME280_pressure;Samples;Min_cycle;Max_cycle;Signal;HPM_P1;HPM_P2
2024/02/17 00:00:24;;;;;;;;;;;;;;;;;;5093627;28;19908;-71
2024/02/17 00:02:50;;;;;;;;;;;;;;;;;;5093919;28;19908;-72
2024/02/17 00:05:16;;;;;;;;;;;;;;;;;;5092644;28;19915;-72
2024/02/17 00:07:42;;;;;;;;;;;;;;;;;;5093319;28;19920;-71
2024/02/17 00:10:08;;;;;;;;;;;;;;;;;;5094056;28;19915;-71
2024/02/17 00:12:34;;;;;;;;;;;;;;;;;;5094125;28;19911;-71
2024/02/17 00:15:00;;;;;;;;;;;;;;;;;;5093785;28;19908;-71
2024/02/17 00:17:26;;;;;;;;;;;;;;;;;;5093926;28;19916;-72
2024/02/17 00:19:52;;;;;;;;;;;;;;;;;;5094100;28;20008;-72
2024/02/17 00:22:18;;;;;;;;;;;;;;;;;;5093498;28;20275;-72
2024/02/17 00:24:44;;;;;;;;;;;;;;;;;;5093924;28;19908;-72
2024/02/17 00:27:10;;;;;;;;;;;;;;;;;;5094295;28;19915;-71
2024/02/17 00:29:36;;;;;;;;;;;;;;;;;;5094696;28;19921;-71
2024/02/17 00:32:03;;;;;;;;;;;;;;;;;;5096578;28;20352;-72
2024/02/17 00:34:29;;;;;;;;;;;;;;;;;;5097811;28;19961;-72
2024/02/17 00:36:55;;;;;;;;;;;;;;;;;;5097502;28;19908;-71
2024/02/17 00:39:20;;;;;;;;;;;;;;;;;;5097775;28;20333;-72
2024/02/17 00:41:46;;;;;;;;;;;;;;;;;;5097399;28;19961;-72
2024/02/17 00:44:12;;;;;;;;;;;;;;;;;;5097591;28;19912;-72
2024/02/17 00:46:38;;;;;;;;;;;;;;;;;;5097687;28;19919;-71
2024/02/17 00:49:04;;;;;;;;;;;;;;;;;;5097079;28;19998;-71
2024/02/17 00:51:30;;;;;;;;;;;;;;;;;;5097749;28;19908;-71
2024/02/17 00:53:56;;;;;;;;;;;;;;;;;;5096091;28;20371;-72
2024/02/17 00:56:22;;;;;;;;;;;;;;;;;;5096884;28;20397;-71
2024/02/17 00:58:48;;;;;;;;;;;;;;;;;;5097249;28;20003;-72
2024/02/17 01:01:14;;;;;;;;;;;;;;;;;;5097209;28;19961;-71
2024/02/17 01:03:40;;;;;;;;;;;;;;;;;;5096800;28;19912;-71
2024/02/17 01:06:07;;;;;;;;;;;;;;;;;;5097165;28;19940;-71
2024/02/17 01:08:33;;;;;;;;;;;;;;;;;;5096853;28;19924;-71
2024/02/17 01:10:59;;;;;;;;;;;;;;;;;;5096699;28;19915;-72
2024/02/17 01:13:25;;;;;;;;;;;;;;;;;;5095760;28;19998;-71
2024/02/17 01:15:51;;;;;;;;;;;;;;;;;;5096949;28;20390;-71
2024/02/17 01:18:17;;;;;;;;;;;;;;;;;;5096485;28;19908;-71
2024/02/17 01:20:43;;;;;;;;;;;;;;;;;;5096879;28;20003;-71
2024/02/17 01:23:09;;;;;;;;;;;;;;;;;;5095492;28;19908;-71
2024/02/17 01:25:35;;;;;;;;;;;;;;;;;;5096404;28;19908;-71
2024/02/17 01:28:01;;;;;;;;;;;;;;;;;;5096723;28;20288;-71
2024/02/17 01:30:27;;;;;;;;;;;;;;;;;;5096681;28;19935;-72
2024/02/17 01:32:53;;;;;;;;;;;;;;;;;;5096381;28;19912;-71
2024/02/17 01:35:19;;;;;;;;;;;;;;;;;;5096581;28;20003;-71
2024/02/17 01:37:48;;;;;;;;;;;;;;;;;;5096529;28;19909;-71
2024/02/17 01:40:14;;;;;;;;;;;;;;;;;;5095749;28;19943;-72
2024/02/17 01:42:40;;;;;;;;;;;;;;;;;;5096459;28;20363;-71
2024/02/17 01:45:07;;;;;;;;;;;;;;;;;;5095965;28;19908;-72
2024/02/17 01:47:33;;;;;;;;;;;;;;;;;;5096356;28;19912;-70
2024/02/17 01:49:59;;;;;;;;;;;;;;;;;;5096429;28;19919;-71
2024/02/17 01:52:25;;;;;;;;;;;;;;;;;;5096277;28;20360;-70
2024/02/17 01:54:50;;;;;;;;;;;;;;;;;;5096223;28;19908;-70
2024/02/17 01:57:16;;;;;;;;;;;;;;;;;;5096416;28;19908;-71
2024/02/17 01:59:42;;;;;;;;;;;;;;;;;;5095805;28;20010;-71
2024/02/17 02:02:08;;;;;;;;;;;;;;;;;;5096568;28;19915;-70
2024/02/17 02:04:34;;;;;;;;;;;;;;;;;;5096546;28;19915;-70
2024/02/17 02:07:00;;;;;;;;;;;;;;;;;;5095416;28;19908;-69
2024/02/17 02:09:26;;;;;;;;;;;;;;;;;;5096142;28;19959;-71
2024/02/17 02:11:53;;;;;;;;;;;;;;;;;;5096037;28;19915;-70
2024/02/17 02:14:19;;;;;;;;;;;;;;;;;;5095579;28;20006;-70
2024/02/17 02:16:45;;;;;;;;;;;;;;;;;;5096054;28;19947;-70
2024/02/17 02:19:14;;;;;;;;;;;;;;;;;;5095792;28;19916;-70
2024/02/17 02:21:40;;;;;;;;;;;;;;;;;;5095396;28;19908;-70
2024/02/17 02:24:05;;;;;;;;;;;;;;;;;;5095631;28;20012;-70
2024/02/17 02:26:31;;;;;;;;;;;;;;;;;;5096129;28;20318;-70
2024/02/17 02:28:57;;;;;;;;;;;;;;;;;;5095080;28;19923;-70
2024/02/17 02:31:23;;;;;;;;;;;;;;;;;;5095524;28;19908;-71
2024/02/17 02:33:51;;;;;;;;;;;;;;;;;;5095739;28;19908;-71
2024/02/17 02:36:17;;;;;;;;;;;;;;;;;;5095040;28;20413;-71
2024/02/17 02:38:43;;;;;;;;;;;;;;;;;;5095477;28;20006;-71
2024/02/17 02:41:10;;;;;;;;;;;;;;;;;;5094085;28;19908;-70
2024/02/17 02:43:36;;;;;;;;;;;;;;;;;;5094955;28;19908;-70
2024/02/17 02:46:02;;;;;;;;;;;;;;;;;;5095795;28;20396;-70
2024/02/17 02:48:28;;;;;;;;;;;;;;;;;;5094711;28;20382;-70
2024/02/17 02:50:54;;;;;;;;;;;;;;;;;;5095125;28;19908;-70
2024/02/17 02:53:20;;;;;;;;;;;;;;;;;;5094216;28;19998;-70
2024/02/17 02:55:46;;;;;;;;;;;;;;;;;;5095009;28;19908;-71
2024/02/17 02:58:12;;;;;;;;;;;;;;;;;;5095019;28;20420;-71
2024/02/17 03:00:38;;;;;;;;;;;;;;;;;;5093742;28;20262;-71
2024/02/17 03:03:04;;;;;;;;;;;;;;;;;;5094498;28;19908;-71
2024/02/17 03:05:30;;;;;;;;;;;;;;;;;;5095144;28;19912;-71
2024/02/17 03:07:56;;;;;;;;;;;;;;;;;;5094531;28;19920;-71
2024/02/17 03:10:22;;;;;;;;;;;;;;;;;;5094642;28;19915;-71
2024/02/17 03:12:48;;;;;;;;;;;;;;;;;;5094749;28;20383;-71
2024/02/17 03:15:14;;;;;;;;;;;;;;;;;;5094678;28;19908;-70
2024/02/17 03:17:39;;;;;;;;;;;;;;;;;;5094372;28;19954;-70
2024/02/17 03:20:05;;;;;;;;;;;;;;;;;;5094665;28;19991;-70
2024/02/17 03:22:31;;;;;;;;;;;;;;;;;;5094594;28;19908;-70
2024/02/17 03:24:57;;;;;;;;;;;;;;;;;;5094150;28;20040;-71
2024/02/17 03:27:23;;;;;;;;;;;;;;;;;;5093140;28;19912;-70
2024/02/17 03:29:49;;;;;;;;;;;;;;;;;;5094442;28;19913;-70
2024/02/17 03:32:15;;;;;;;;;;;;;;;;;;5094002;28;19961;-70
2024/02/17 03:34:41;;;;;;;;;;;;;;;;;;5094974;28;20269;-70
2024/02/17 03:37:07;;;;;;;;;;;;;;;;;;5092973;28;19916;-71
2024/02/17 03:39:33;;;;;;;;;;;;;;;;;;5093976;28;19912;-71
2024/02/17 03:41:59;;;;;;;;;;;;;;;;;;5094256;28;20321;-71
2024/02/17 03:44:25;;;;;;;;;;;;;;;;;;5094189;28;19950;-71
2024/02/17 03:46:51;;;;;;;;;;;;;;;;;;5093806;28;20382;-71
2024/02/17 03:49:20;;;;;;;;;;;;;;;;;;5092839;28;19955;-71
2024/02/17 03:51:47;;;;;;;;;;;;;;;;;;5093772;28;20364;-71
2024/02/17 03:54:12;;;;;;;;;;;;;;;;;;5094065;28;19912;-71
2024/02/17 03:56:38;;;;;;;;;;;;;;;;;;5094038;28;19908;-71
2024/02/17 03:59:04;;;;;;;;;;;;;;;;;;5093638;28;19961;-71
2024/02/17 04:01:30;;;;;;;;;;;;;;;;;;5092757;28;19908;-71
2024/02/17 04:03:56;;;;;;;;;;;;;;;;;;5093818;28;20462;-71
2024/02/17 04:06:22;;;;;;;;;;;;;;;;;;5093569;28;19920;-71
2024/02/17 04:08:48;;;;;;;;;;;;;;;;;;5093610;28;20015;-71
2024/02/17 04:11:14;;;;;;;;;;;;;;;;;;5093906;28;19909;-72
2024/02/17 04:13:43;;;;;;;;;;;;;;;;;;5093776;28;20322;-72
2024/02/17 04:16:09;;;;;;;;;;;;;;;;;;5093818;28;20357;-72
2024/02/17 04:18:35;;;;;;;;;;;;;;;;;;5093867;28;19912;-71
2024/02/17 04:21:03;;;;;;;;;;;;;;;;;;5093344;28;19908;-71
2024/02/17 04:23:29;;;;;;;;;;;;;;;;;;5093858;28;19915;-71
2024/02/17 04:25:57;;;;;;;;;;;;;;;;;;5093718;28;19908;-71
2024/02/17 04:28:23;;;;;;;;;;;;;;;;;;5093192;28;19920;-71
2024/02/17 04:30:49;;;;;;;;;;;;;;;;;;5094320;28;19908;-71
2024/02/17 04:33:15;;;;;;;;;;;;;;;;;;5093685;28;19915;-71
2024/02/17 04:35:41;;;;;;;;;;;;;;;;;;5093331;28;20372;-71
2024/02/17 04:38:07;;;;;;;;;;;;;;;;;;5092378;28;19908;-71
2024/02/17 04:40:33;;;;;;;;;;;;;;;;;;5092358;28;19996;-72
2024/02/17 04:42:59;;;;;;;;;;;;;;;;;;5093208;28;19915;-71
2024/02/17 04:45:25;;;;;;;;;;;;;;;;;;5093582;28;19943;-73
2024/02/17 04:47:51;;;;;;;;;;;;;;;;;;5093089;28;20018;-71
2024/02/17 04:50:17;;;;;;;;;;;;;;;;;;5093530;28;20388;-71
2024/02/17 04:52:43;;;;;;;;;;;;;;;;;;5093564;28;19919;-71
2024/02/17 04:55:09;;;;;;;;;;;;;;;;;;5093599;28;19908;-71
2024/02/17 04:57:35;;;;;;;;;;;;;;;;;;5093579;28;19908;-71
2024/02/17 05:00:01;;;;;;;;;;;;;;;;;;5093504;28;19974;-71
2024/02/17 05:02:27;;;;;;;;;;;;;;;;;;5093031;28;20003;-71
2024/02/17 05:04:53;;;;;;;;;;;;;;;;;;5093368;28;19948;-71
2024/02/17 05:07:19;;;;;;;;;;;;;;;;;;5093251;28;19912;-71
2024/02/17 05:09:45;;;;;;;;;;;;;;;;;;5092874;28;19924;-71
2024/02/17 05:12:11;;;;;;;;;;;;;;;;;;5092068;28;19912;-71
2024/02/17 05:14:37;;;;;;;;;;;;;;;;;;5093300;28;20345;-71
2024/02/17 05:17:03;;;;;;;;;;;;;;;;;;5095035;28;19912;-71
2024/02/17 05:19:29;;;;;;;;;;;;;;;;;;5097246;28;20262;-71
2024/02/17 05:21:57;;;;;;;;;;;;;;;;;;5096948;28;20045;-71
2024/02/17 05:24:24;;;;;;;;;;;;;;;;;;5096629;28;19915;-71
2024/02/17 05:26:49;;;;;;;;;;;;;;;;;;5096752;28;19915;-71
2024/02/17 05:29:16;;;;;;;;;;;;;;;;;;5096719;28;19916;-72
2024/02/17 05:31:42;;;;;;;;;;;;;;;;;;5096405;28;19942;-72
2024/02/17 05:34:08;;;;;;;;;;;;;;;;;;5095406;28;19912;-70
2024/02/17 05:36:33;;;;;;;;;;;;;;;;;;5096658;28;19953;-72
2024/02/17 05:38:59;;;;;;;;;;;;;;;;;;5096184;28;19981;-70
2024/02/17 05:41:25;;;;;;;;;;;;;;;;;;5096483;28;19908;-70
2024/02/17 05:43:52;;;;;;;;;;;;;;;;;;5096742;28;19961;-70
2024/02/17 05:46:18;;;;;;;;;;;;;;;;;;5096047;28;19915;-70
2024/02/17 05:48:47;;;;;;;;;;;;;;;;;;5096614;28;19917;-70
2024/02/17 05:51:13;;;;;;;;;;;;;;;;;;5094674;28;19912;-70
2024/02/17 05:53:39;;;;;;;;;;;;;;;;;;5096294;28;19931;-70
2024/02/17 05:56:05;;;;;;;;;;;;;;;;;;5094944;28;19908;-70
2024/02/17 05:58:31;;;;;;;;;;;;;;;;;;5095929;28;19912;-71
2024/02/17 06:01:00;;;;;;;;;;;;;;;;;;5094833;28;20002;-70
2024/02/17 06:03:26;;;;;;;;;;;;;;;;;;5096699;28;19978;-70
2024/02/17 06:05:52;;;;;;;;;;;;;;;;;;5095705;28;19908;-71
2024/02/17 06:08:18;;;;;;;;;;;;;;;;;;5096007;28;20364;-71
2024/02/17 06:10:44;;;;;;;;;;;;;;;;;;5096625;28;19936;-71
2024/02/17 06:13:10;;;;;;;;;;;;;;;;;;5095831;28;19908;-71
2024/02/17 06:15:38;;;;;;;;;;;;;;;;;;5095971;28;19962;-70
2024/02/17 06:23:33;;;;;;;;;;;;;;;;;;5096007;28;20009;-71
2024/02/17 06:25:59;;;;;;;;;;;;;;;;;;5095640;28;19912;-71
2024/02/17 06:28:25;;;;;;;;;;;;;;;;;;5095109;28;20017;-71
2024/02/17 06:30:51;;;;;;;;;;;;;;;;;;5095601;28;19995;-71
2024/02/17 06:33:17;;;;;;;;;;;;;;;;;;5095534;28;19959;-71
2024/02/17 06:35:43;;;;;;;;;;;;;;;;;;5095029;28;19916;-71
2024/02/17 06:38:09;;;;;;;;;;;;;;;;;;5095642;28;19995;-71
2024/02/17 06:40:34;;;;;;;;;;;;;;;;;;5093615;28;19908;-71
2024/02/17 06:43:01;;;;;;;;;;;;;;;;;;5095318;28;19930;-71
2024/02/17 06:45:27;;;;;;;;;;;;;;;;;;5095337;28;19909;-71
2024/02/17 06:47:53;;;;;;;;;;;;;;;;;;5094862;28;19920;-71
2024/02/17 06:50:19;;;;;;;;;;;;;;;;;;5095202;28;19914;-72
2024/02/17 06:52:45;;;;;;;;;;;;;;;;;;5093851;28;19909;-71
2024/02/17 06:55:11;;;;;;;;;;;;;;;;;;5094749;28;19933;-72
2024/02/17 06:57:37;;;;;;;;;;;;;;;;;;5095700;28;20352;-72
2024/02/17 07:00:03;;;;;;;;;;;;;;;;;;5095002;28;19912;-71
2024/02/17 07:02:30;;;;;;;;;;;;;;;;;;5094583;28;19914;-72
2024/02/17 07:04:56;;;;;;;;;;;;;;;;;;5094975;28;20361;-73
2024/02/17 07:07:21;;;;;;;;;;;;;;;;;;5095185;28;19916;-70
2024/02/17 07:09:47;;;;;;;;;;;;;;;;;;5094568;28;19917;-71
2024/02/17 07:12:13;;;;;;;;;;;;;;;;;;5094785;28;20381;-71
2024/02/17 07:14:39;;;;;;;;;;;;;;;;;;5094677;28;20276;-71
2024/02/17 07:17:05;;;;;;;;;;;;;;;;;;5094343;28;19908;-71
2024/02/17 07:19:31;;;;;;;;;;;;;;;;;;5094685;28;19909;-71
2024/02/17 07:21:57;;;;;;;;;;;;;;;;;;5093339;28;19908;-72
2024/02/17 07:24:23;;;;;;;;;;;;;;;;;;5094341;28;19912;-71
2024/02/17 07:26:52;;;;;;;;;;;;;;;;;;5094715;28;19908;-71
2024/02/17 07:29:18;;;;;;;;;;;;;;;;;;5094476;28;20347;-71
2024/02/17 07:31:44;;;;;;;;;;;;;;;;;;5092725;28;19947;-71
2024/02/17 07:34:14;;;;;;;;;;;;;;;;;;5094507;28;20409;-71
2024/02/17 07:36:41;;;;;;;;;;;;;;;;;;5094076;28;19915;-71
2024/02/17 07:39:10;;;;;;;;;;;;;;;;;;5093960;28;20279;-71
2024/02/17 07:41:36;;;;;;;;;;;;;;;;;;5093325;28;20284;-71
2024/02/17 07:44:02;;;;;;;;;;;;;;;;;;5093878;28;19909;-71
2024/02/17 07:46:28;;;;;;;;;;;;;;;;;;5094191;28;19908;-71
2024/02/17 07:48:54;;;;;;;;;;;;;;;;;;5094073;28;20392;-71
2024/02/17 07:51:20;;;;;;;;;;;;;;;;;;5093730;28;19908;-72
2024/02/17 07:53:46;;;;;;;;;;;;;;;;;;5094642;28;19988;-71
2024/02/17 07:56:12;;;;;;;;;;;;;;;;;;5093936;28;19909;-72
2024/02/17 07:58:38;;;;;;;;;;;;;;;;;;5093738;28;20021;-72
2024/02/17 08:01:05;;;;;;;;;;;;;;;;;;5094114;28;19908;-73
2024/02/17 08:03:30;;;;;;;;;;;;;;;;;;5094573;28;19915;-72
2024/02/17 08:05:56;;;;;;;;;;;;;;;;;;5093780;28;19908;-71
2024/02/17 08:08:24;;;;;;;;;;;;;;;;;;5093676;28;19946;-71
2024/02/17 08:10:50;;;;;;;;;;;;;;;;;;5094193;28;19908;-71
2024/02/17 08:13:16;;;;;;;;;;;;;;;;;;5093493;28;19909;-71
2024/02/17 08:15:43;;;;;;;;;;;;;;;;;;5093821;28;19979;-71
2024/02/17 08:18:08;;;;;;;;;;;;;;;;;;5094104;28;19908;-71
2024/02/17 08:20:34;;;;;;;;;;;;;;;;;;5093453;28;20440;-71
2024/02/17 08:23:00;;;;;;;;;;;;;;;;;;5093722;28;19961;-71
2024/02/17 08:25:26;;;;;;;;;;;;;;;;;;5093731;28;19909;-71
2024/02/17 08:27:52;;;;;;;;;;;;;;;;;;5091906;28;20389;-72
2024/02/17 08:30:18;;;;;;;;;;;;;;;;;;5094070;28;19909;-71
2024/02/17 08:32:46;;;;;;;;;;;;;;;;;;5093707;28;19952;-72
2024/02/17 08:35:12;;;;;;;;;;;;;;;;;;5093276;28;19909;-72
2024/02/17 08:37:38;;;;;;;;;;;;;;;;;;5093647;28;19908;-72
2024/02/17 08:40:04;;;;;;;;;;;;;;;;;;5093469;28;19915;-72
2024/02/17 08:42:30;;;;;;;;;;;;;;;;;;5093628;28;19908;-72
2024/02/17 08:44:57;;;;;;;;;;;;;;;;;;5093538;28;20280;-73
2024/02/17 08:47:22;;;;;;;;;;;;;;;;;;5093099;28;19928;-72
2024/02/17 08:49:48;;;;;;;;;;;;;;;;;;5093791;28;20015;-72
2024/02/17 08:52:15;;;;;;;;;;;;;;;;;;5097411;28;19908;-72
2024/02/17 08:54:40;;;;;;;;;;;;;;;;;;5097440;28;19915;-72
2024/02/17 08:57:06;;;;;;;;;;;;;;;;;;5097961;28;20265;-72
2024/02/17 08:59:33;;;;;;;;;;;;;;;;;;5096058;28;19959;-72
2024/02/17 09:01:59;;;;;;;;;;;;;;;;;;5096840;28;19908;-72
2024/02/17 09:04:25;;;;;;;;;;;;;;;;;;5097737;28;20353;-72
2024/02/17 09:06:52;;;;;;;;;;;;;;;;;;5095903;28;20288;-72
2024/02/17 09:09:18;;;;;;;;;;;;;;;;;;5096456;28;19927;-72
2024/02/17 09:11:45;;;;;;;;;;;;;;;;;;5097197;28;19943;-72
2024/02/17 09:14:11;;;;;;;;;;;;;;;;;;5097119;28;19908;-72
2024/02/17 09:16:37;;;;;;;;;;;;;;;;;;5096648;28;20281;-72
2024/02/17 09:19:03;;;;;;;;;;;;;;;;;;5095677;28;19943;-73
2024/02/17 09:21:29;;;;;;;;;;;;;;;;;;5096900;28;19908;-73
2024/02/17 09:23:55;;;;;;;;;;;;;;;;;;5096500;28;19954;-73
2024/02/17 09:26:21;;;;;;;;;;;;;;;;;;5097087;28;19974;-73
2024/02/17 09:28:47;;;;;;;;;;;;;;;;;;5096663;28;19939;-72
2024/02/17 09:31:13;;;;;;;;;;;;;;;;;;5095046;28;20367;-73
2024/02/17 09:33:39;;;;;;;;;;;;;;;;;;5096709;28;20394;-72
2024/02/17 09:36:06;;;;;;;;;;;;;;;;;;5097263;28;20415;-72
2024/02/17 09:38:32;;;;;;;;;;;;;;;;;;5096279;28;19908;-73
2024/02/17 09:40:58;;;;;;;;;;;;;;;;;;5096804;28;20372;-73
2024/02/17 09:43:25;;;;;;;;;;;;;;;;;;5096118;28;20303;-72
2024/02/17 09:45:51;;;;;;;;;;;;;;;;;;5096451;28;19959;-72
2024/02/17 09:48:17;;;;;;;;;;;;;;;;;;5096427;28;20365;-73
2024/02/17 09:50:44;;;;;;;;;;;;;;;;;;5096026;28;20002;-72
2024/02/17 09:53:10;;;;;;;;;;;;;;;;;;5096254;28;19994;-73
2024/02/17 09:55:36;;;;;;;;;;;;;;;;;;5096297;28;20399;-73
2024/02/17 09:58:02;;;;;;;;;;;;;;;;;;5095895;28;19912;-72
2024/02/17 10:00:28;;;;;;;;;;;;;;;;;;5096191;28;20396;-72
2024/02/17 10:02:54;;;;;;;;;;;;;;;;;;5095794;28;19908;-73
2024/02/17 10:05:21;;;;;;;;;;;;;;;;;;5095701;28;19908;-73
2024/02/17 10:07:47;;;;;;;;;;;;;;;;;;5094513;28;20280;-72
2024/02/17 10:10:13;;;;;;;;;;;;;;;;;;5095941;28;20006;-73
2024/02/17 10:12:39;;;;;;;;;;;;;;;;;;5094177;28;19950;-73
2024/02/17 10:15:05;;;;;;;;;;;;;;;;;;5095822;28;19908;-73
2024/02/17 10:17:31;;;;;;;;;;;;;;;;;;5095846;28;19915;-73
2024/02/17 10:19:57;;;;;;;;;;;;;;;;;;5095459;28;20273;-73
2024/02/17 10:22:41;;;;;;;;;;;;;;;;;;5092196;27;19938;-72
2024/02/17 10:25:07;;;;;;;;;;;;;;;;;;5090105;28;20432;-74
2024/02/17 10:27:33;;;;;;;;;;;;;;;;;;5090880;28;19908;-73
2024/02/17 10:29:59;;;;;;;;;;;;;;;;;;5091733;28;20388;-73
2024/02/17 10:34:37;;;;;;;;;;;;;;;;;;5091068;27;19916;-74
2024/02/17 10:39:02;;;;;;;;;;;;;;;;;;5091829;27;19916;-72
2024/02/17 10:41:29;;;;;;;;;;;;;;;;;;5090926;28;20246;-72
2024/02/17 10:43:55;;;;;;;;;;;;;;;;;;5089939;28;19944;-73
2024/02/17 10:46:21;;;;;;;;;;;;;;;;;;5089930;28;20277;-73
2024/02/17 10:48:47;;;;;;;;;;;;;;;;;;5090768;28;20270;-72
2024/02/17 10:51:13;;;;;;;;;;;;;;;;;;5091010;28;19998;-72
2024/02/17 10:53:39;;;;;;;;;;;;;;;;;;5090678;28;19953;-73
2024/02/17 10:56:05;;;;;;;;;;;;;;;;;;5090986;28;19961;-73
2024/02/17 10:58:30;;;;;;;;;;;;;;;;;;5089597;28;19955;-73
2024/02/17 11:02:41;;;;;;;;;;;;;;;;;;5111416;27;19916;-72
2024/02/17 11:05:07;;;;;;;;;;;;;;;;;;5111741;28;20011;-72
2024/02/17 11:07:33;;;;;;;;;;;;;;;;;;5111655;28;19953;-73
2024/02/17 11:09:59;;;;;;;;;;;;;;;;;;5111125;28;20333;-74
2024/02/17 11:12:25;;;;;;;;;;;;;;;;;;5111469;28;20002;-73
2024/02/17 11:17:01;;;;;;;;;;;;;;;;;;5111773;27;19916;-74
2024/02/17 11:21:21;;;;;;;;;;;;;;;;;;5092155;27;19916;-72
2024/02/17 11:24:18;;;;;;;;;;;;;;;;;;5111995;27;20389;-71
2024/02/17 11:26:44;;;;;;;;;;;;;;;;;;5111807;28;19912;-74
2024/02/17 11:29:10;;;;;;;;;;;;;;;;;;5111281;28;19915;-72
2024/02/17 11:32:13;;;;;;;;;;;;;;;;;;5112585;27;19923;-72
2024/02/17 11:34:39;;;;;;;;;;;;;;;;;;5112211;28;19912;-74
2024/02/17 11:37:05;;;;;;;;;;;;;;;;;;5111217;28;20288;-71
2024/02/17 11:39:31;;;;;;;;;;;;;;;;;;5112162;28;19988;-74
2024/02/17 11:41:57;;;;;;;;;;;;;;;;;;5111594;28;19908;-74
2024/02/17 11:46:12;;;;;;;;;;;;;;;;;;5092009;27;19922;-73
2024/02/17 11:52:59;;;;;;;;;;;;;;;;;;5092241;27;20373;-72
2024/02/17 11:55:25;;;;;;;;;;;;;;;;;;5091350;28;19918;-72
2024/02/17 11:57:55;;;;;;;;;;;;;;;;;;5090997;28;19908;-72
2024/02/17 12:00:21;;;;;;;;;;;;;;;;;;5093028;28;20006;-71
2024/02/17 12:02:47;;;;;;;;;;;;;;;;;;5091220;28;19952;-71
2024/02/17 12:06:49;;;;;;;;;;;;;;;;;;5112418;27;19923;-72
2024/02/17 12:11:01;;;;;;;;;;;;;;;;;;5091424;27;19917;-71
2024/02/17 12:14:44;;;;;;;;;;;;;;;;;;5091973;27;20292;-72
2024/02/17 12:17:10;;;;;;;;;;;;;;;;;;5091750;28;20007;-72
2024/02/17 12:19:36;;;;;;;;;;;;;;;;;;5091009;28;19908;-72
2024/02/17 12:23:16;;;;;;;;;;;;;;;;;;5153179;27;20092;-71
2024/02/17 12:25:42;;;;;;;;;;;;;;;;;;5152395;27;19960;-71
2024/02/17 12:28:08;;;;;;;;;;;;;;;;;;5134201;27;19991;-73
2024/02/17 12:30:34;;;;;;;;;;;;;;;;;;5152656;27;19962;-72
2024/02/17 12:33:00;;;;;;;;;;;;;;;;;;5152299;27;20427;-72
2024/02/17 12:35:26;;;;;;;;;;;;;;;;;;5153196;27;20347;-72
2024/02/17 12:39:30;;;;;;;;;;;;;;;;;;5091502;27;20381;-72
2024/02/17 12:41:55;;;;;;;;;;;;;;;;;;5089869;28;19919;-72
2024/02/17 12:44:22;;;;;;;;;;;;;;;;;;5091183;28;20288;-72
2024/02/17 12:46:48;;;;;;;;;;;;;;;;;;5090831;28;19916;-72
2024/02/17 12:49:14;;;;;;;;;;;;;;;;;;5091144;28;20292;-72
2024/02/17 12:51:40;;;;;;;;;;;;;;;;;;5091572;28;20246;-71
2024/02/17 12:55:17;;;;;;;;;;;;;;;;;;5090879;27;20292;-71
2024/02/17 12:57:56;;;;;;;;;;;;;;;;;;5092131;27;19922;-72
2024/02/17 13:00:22;;;;;;;;;;;;;;;;;;5089666;28;19999;-71
2024/02/17 13:03:16;;;;;;;;;;;;;;;;;;5092163;27;19926;-72
2024/02/17 13:05:44;;;;;;;;;;;;;;;;;;5091320;28;19912;-73
2024/02/17 13:08:10;;;;;;;;;;;;;;;;;;5090904;28;19909;-72
2024/02/17 13:10:36;;;;;;;;;;;;;;;;;;5091295;28;19908;-73
2024/02/17 13:13:03;;;;;;;;;;;;;;;;;;5091248;28;19995;-71
2024/02/17 13:19:30;;;;;;;;;;;;;;;;;;5091727;27;19938;-72
2024/02/17 13:21:57;;;;;;;;;;;;;;;;;;5090996;28;20288;-73
2024/02/17 13:26:37;;;;;;;;;;;;;;;;;;5091761;27;19927;-72
2024/02/17 13:29:03;;;;;;;;;;;;;;;;;;5091122;28;20003;-72
2024/02/17 13:33:35;;;;;;;;;;;;;;;;;;5091518;27;19923;-72
2024/02/17 13:36:01;;;;;;;;;;;;;;;;;;5091050;28;20007;-73
2024/02/17 13:38:27;;;;;;;;;;;;;;;;;;5091270;28;19955;-72
2024/02/17 13:40:53;;;;;;;;;;;;;;;;;;5091355;28;20380;-72
2024/02/17 13:43:19;;;;;;;;;;;;;;;;;;5089378;28;19909;-72
2024/02/17 13:46:24;;;;;;;;;;;;;;;;;;5091437;27;19916;-73
2024/02/17 13:49:26;;;;;;;;;;;;;;;;;;5091258;27;19935;-72
2024/02/17 13:53:57;;;;;;;;;;;;;;;;;;5174366;27;20386;-72
2024/02/17 13:57:03;;;;;;;;;;;;;;;;;;5091528;27;20268;-72
2024/02/17 13:59:29;;;;;;;;;;;;;;;;;;5091514;28;19913;-72
2024/02/17 14:01:55;;;;;;;;;;;;;;;;;;5091170;28;19915;-72
2024/02/17 14:04:21;;;;;;;;;;;;;;;;;;5090855;28;19919;-72
2024/02/17 14:07:24;;;;;;;;;;;;;;;;;;5092040;27;20414;-73
2024/02/17 14:11:10;;;;;;;;;;;;;;;;;;5071054;28;19923;-72
2024/02/17 14:13:35;;;;;;;;;;;;;;;;;;5071277;28;19962;-72
2024/02/17 14:16:01;;;;;;;;;;;;;;;;;;5070923;28;19988;-73
2024/02/17 14:18:28;;;;;;;;;;;;;;;;;;5070515;28;20340;-72
2024/02/17 14:20:59;;;;;;;;;;;;;;;;;;5070963;28;19932;-72
2024/02/17 14:23:57;;;;;;;;;;;;;;;;;;5091811;27;19922;-72
2024/02/17 14:26:23;;;;;;;;;;;;;;;;;;5091005;28;19970;-71
2024/02/17 14:28:49;;;;;;;;;;;;;;;;;;5091139;28;20330;-74
2024/02/17 14:31:16;;;;;;;;;;;;;;;;;;5089670;28;19930;-71
2024/02/17 14:33:42;;;;;;;;;;;;;;;;;;5090658;28;19913;-72
2024/02/17 14:37:10;;;;;;;;;;;;;;;;;;5092000;27;19913;-72
2024/02/17 14:39:37;;;;;;;;;;;;;;;;;;5090829;28;20010;-72
2024/02/17 14:42:03;;;;;;;;;;;;;;;;;;5091114;28;19951;-72
2024/02/17 14:46:12;;;;;;;;;;;;;;;;;;5111960;27;19916;-73
2024/02/17 14:48:38;;;;;;;;;;;;;;;;;;5111988;28;19918;-73
2024/02/17 14:51:04;;;;;;;;;;;;;;;;;;5110332;28;19912;-73
2024/02/17 14:53:30;;;;;;;;;;;;;;;;;;5111124;28;20303;-72
2024/02/17 14:55:56;;;;;;;;;;;;;;;;;;5111561;28;20372;-73
2024/02/17 14:58:22;;;;;;;;;;;;;;;;;;5111456;28;19999;-73
2024/02/17 15:00:48;;;;;;;;;;;;;;;;;;5109787;28;19915;-73
2024/02/17 15:03:14;;;;;;;;;;;;;;;;;;5111448;28;19990;-72
2024/02/17 15:05:40;;;;;;;;;;;;;;;;;;5111338;28;19967;-72
2024/02/17 15:08:06;;;;;;;;;;;;;;;;;;5110970;28;19919;-72
2024/02/17 15:10:32;;;;;;;;;;;;;;;;;;5111458;28;19912;-71
2024/02/17 15:12:58;;;;;;;;;;;;;;;;;;5111187;28;20002;-72
2024/02/17 15:15:27;;;;;;;;;;;;;;;;;;5110878;28;19922;-72
2024/02/17 15:17:53;;;;;;;;;;;;;;;;;;5111269;28;20016;-72
2024/02/17 15:20:19;;;;;;;;;;;;;;;;;;5111607;28;20332;-72
2024/02/17 15:22:45;;;;;;;;;;;;;;;;;;5110582;28;20368;-72
2024/02/17 15:25:11;;;;;;;;;;;;;;;;;;5111560;28;20375;-72
2024/02/17 15:27:37;;;;;;;;;;;;;;;;;;5111033;28;20431;-72
2024/02/17 15:30:52;;;;;;;;;;;;;;;;;;5071931;28;19917;-72
2024/02/17 15:33:18;;;;;;;;;;;;;;;;;;5071636;28;20011;-72
2024/02/17 15:35:45;;;;;;;;;;;;;;;;;;5070641;28;19963;-72
2024/02/17 15:38:12;;;;;;;;;;;;;;;;;;5071088;28;19915;-73
2024/02/17 15:42:13;;;;;;;;;;;;;;;;;;5111977;27;19922;-71
2024/02/17 15:44:40;;;;;;;;;;;;;;;;;;5111762;28;20343;-72
2024/02/17 15:47:06;;;;;;;;;;;;;;;;;;5111722;28;19908;-74
2024/02/17 15:54:24;;;;;;;;;;;;;;;;;;5092437;27;20006;-72
2024/02/17 15:56:50;;;;;;;;;;;;;;;;;;5090961;28;19962;-72
2024/02/17 16:01:17;;;;;;;;;;;;;;;;;;5091556;27;20282;-74
2024/02/17 16:06:47;;;;;;;;;;;;;;;;;;5092178;27;19916;-74
2024/02/17 16:10:09;;;;;;;;;;;;;;;;;;5112017;27;19916;-72
2024/02/17 16:13:09;;;;;;;;;;;;;;;;;;5091976;27;19923;-74
2024/02/17 16:18:11;;;;;;;;;;;;;;;;;;5091201;27;20376;-74
2024/02/17 16:20:37;;;;;;;;;;;;;;;;;;5091773;28;19912;-72
2024/02/17 16:23:03;;;;;;;;;;;;;;;;;;5091202;28;19943;-72
2024/02/17 16:25:29;;;;;;;;;;;;;;;;;;5089723;28;19947;-72
2024/02/17 16:27:55;;;;;;;;;;;;;;;;;;5091266;28;19908;-72
2024/02/17 16:30:21;;;;;;;;;;;;;;;;;;5091152;28;20007;-72
2024/02/17 16:32:47;;;;;;;;;;;;;;;;;;5089523;28;19915;-72
2024/02/17 16:35:13;;;;;;;;;;;;;;;;;;5091151;28;19915;-72
2024/02/17 16:37:41;;;;;;;;;;;;;;;;;;5091001;28;19916;-72
2024/02/17 16:40:06;;;;;;;;;;;;;;;;;;5090613;28;19909;-73
2024/02/17 16:42:32;;;;;;;;;;;;;;;;;;5090876;28;19915;-73
2024/02/17 16:44:58;;;;;;;;;;;;;;;;;;5089642;28;19995;-73
2024/02/17 16:47:24;;;;;;;;;;;;;;;;;;5090447;28;19912;-73
2024/02/17 16:49:50;;;;;;;;;;;;;;;;;;5090710;28;19919;-73
2024/02/17 16:52:16;;;;;;;;;;;;;;;;;;5090473;28;19912;-73
2024/02/17 16:54:42;;;;;;;;;;;;;;;;;;5090759;28;19909;-73
2024/02/17 16:57:09;;;;;;;;;;;;;;;;;;5090518;28;20038;-72
2024/02/17 16:59:36;;;;;;;;;;;;;;;;;;5090222;28;20368;-74
2024/02/17 17:02:02;;;;;;;;;;;;;;;;;;5090689;28;19914;-73
2024/02/17 17:04:32;;;;;;;;;;;;;;;;;;5090895;28;19908;-74
2024/02/17 17:06:58;;;;;;;;;;;;;;;;;;5090040;28;19912;-73
2024/02/17 17:09:23;;;;;;;;;;;;;;;;;;5090499;28;19915;-72
2024/02/17 17:11:49;;;;;;;;;;;;;;;;;;5090392;28;19954;-72
2024/02/17 17:14:15;;;;;;;;;;;;;;;;;;5089918;28;19909;-73
2024/02/17 17:16:41;;;;;;;;;;;;;;;;;;5098302;28;20007;-73
2024/02/17 17:19:07;;;;;;;;;;;;;;;;;;5110369;28;19915;-72
2024/02/17 17:21:33;;;;;;;;;;;;;;;;;;5092019;28;19908;-73
2024/02/17 17:23:59;;;;;;;;;;;;;;;;;;5110592;28;19908;-73
2024/02/17 17:26:26;;;;;;;;;;;;;;;;;;5110750;28;19908;-73
2024/02/17 17:28:53;;;;;;;;;;;;;;;;;;5100042;28;19954;-72
2024/02/17 17:31:19;;;;;;;;;;;;;;;;;;5097406;28;19908;-73
2024/02/17 17:33:45;;;;;;;;;;;;;;;;;;5096812;28;19931;-73
2024/02/17 17:36:11;;;;;;;;;;;;;;;;;;5096314;28;19916;-73
2024/02/17 17:38:37;;;;;;;;;;;;;;;;;;5078535;28;19955;-73
2024/02/17 17:41:03;;;;;;;;;;;;;;;;;;5096602;28;19909;-72
2024/02/17 17:43:33;;;;;;;;;;;;;;;;;;5096253;28;19915;-72